sensor_id;sensor_type;location;lat;lon;timestamp;pressure;altitude;pressure_sealevel;temperature;humidity
68226;BME280;55045;49.410;11.030;2023-04-01T00:02:22;96609.00;;;7.96;100.00
68226;BME280;55045;49.410;11.030;2023-04-01T00:05:25;96604.66;;;8.11;100.00
68226;BME280;55045;49.410;11.030;2023-04-01T00:08:29;96606.56;;;8.07;100.00
68226;BME280;55045;49.410;11.030;2023-04-01T00:11:33;96603.25;;;8.05;100.00
68226;BME280;55045;49.410;11.030;2023-04-01T00:14:36;96591.44;;;8.15;100.00
68226;BME280;55045;49.410;11.030;2023-04-01T00:17:39;96597.69;;;8.25;100.00
68226;BME280;55045;49.410;11.030;2023-04-01T00:20:44;96587.00;;;8.17;100.00
68226;BME280;55045;49.410;11.030;2023-04-01T00:23:49;96591.34;;;8.17;100.00
68226;BME280;55045;49.410;11.030;2023-04-01T00:26:54;96590.59;;;8.15;100.00
68226;BME280;55045;49.410;11.030;2023-04-01T00:29:57;96594.69;;;8.19;100.00
68226;BME280;55045;49.410;11.030;2023-04-01T00:33:01;96594.28;;;8.25;100.00
68226;BME280;55045;49.410;11.030;2023-04-01T00:36:09;96590.44;;;8.18;100.00
68226;BME280;55045;49.410;11.030;2023-04-01T00:39:14;96586.41;;;8.26;100.00
68226;BME280;55045;49.410;11.030;2023-04-01T00:42:17;96585.53;;;8.13;100.00
68226;BME280;55045;49.410;11.030;2023-04-01T00:45:31;96593.84;;;8.18;100.00
68226;BME280;55045;49.410;11.030;2023-04-01T00:48:37;96601.59;;;8.18;100.00
68226;BME280;55045;49.410;11.030;2023-04-01T00:51:42;96596.44;;;8.18;100.00
68226;BME280;55045;49.410;11.030;2023-04-01T00:54:52;96593.09;;;8.16;100.00
68226;BME280;55045;49.410;11.030;2023-04-01T00:57:59;96603.91;;;8.08;100.00
68226;BME280;55045;49.410;11.030;2023-04-01T01:01:05;96599.59;;;8.09;100.00
68226;BME280;55045;49.410;11.030;2023-04-01T01:04:21;96594.94;;;8.14;100.00
68226;BME280;55045;49.410;11.030;2023-04-01T01:07:28;96598.25;;;8.16;100.00
68226;BME280;55045;49.410;11.030;2023-04-01T01:10:39;96596.06;;;8.10;100.00
68226;BME280;55045;49.410;11.030;2023-04-01T01:13:49;96591.53;;;8.14;100.00
68226;BME280;55045;49.410;11.030;2023-04-01T01:17:04;96592.47;;;8.13;100.00
68226;BME280;55045;49.410;11.030;2023-04-01T01:27:12;96596.44;;;8.04;100.00
68226;BME280;55045;49.410;11.030;2023-04-01T01:30:26;96595.25;;;8.09;100.00
68226;BME280;55045;49.410;11.030;2023-04-01T01:33:53;96580.38;;;8.13;100.00
68226;BME280;55045;49.410;11.030;2023-04-01T01:37:07;96582.34;;;8.09;100.00
68226;BME280;55045;49.410;11.030;2023-04-01T01:40:14;96576.34;;;8.09;100.00
68226;BME280;55045;49.410;11.030;2023-04-01T01:43:22;96582.44;;;8.08;100.00
68226;BME280;55045;49.410;11.030;2023-04-01T01:46:26;96568.41;;;8.12;100.00
68226;BME280;55045;49.410;11.030;2023-04-01T01:49:32;96570.78;;;8.15;100.00
68226;BME280;55045;49.410;11.030;2023-04-01T01:52:38;96571.06;;;8.11;100.00
68226;BME280;55045;49.410;11.030;2023-04-01T01:55:43;96564.94;;;7.99;100.00
68226;BME280;55045;49.410;11.030;2023-04-01T01:58:49;96575.13;;;8.15;100.00
68226;BME280;55045;49.410;11.030;2023-04-01T02:01:56;96573.00;;;8.07;100.00
68226;BME280;55045;49.410;11.030;2023-04-01T02:05:01;96572.09;;;8.08;100.00
68226;BME280;55045;49.410;11.030;2023-04-01T02:08:09;96557.72;;;8.04;100.00
68226;BME280;55045;49.410;11.030;2023-04-01T02:11:16;96561.53;;;7.98;100.00
68226;BME280;55045;49.410;11.030;2023-04-01T02:14:24;96563.44;;;7.95;100.00
68226;BME280;55045;49.410;11.030;2023-04-01T02:17:29;96562.34;;;7.99;100.00
68226;BME280;55045;49.410;11.030;2023-04-01T02:20:34;96575.53;;;7.94;100.00
68226;BME280;55045;49.410;11.030;2023-04-01T02:23:41;96565.88;;;7.98;100.00
68226;BME280;55045;49.410;11.030;2023-04-01T02:26:46;96572.59;;;7.86;100.00
68226;BME280;55045;49.410;11.030;2023-04-01T02:29:50;96573.69;;;7.96;100.00
68226;BME280;55045;49.410;11.030;2023-04-01T02:32:55;96577.00;;;7.98;100.00
68226;BME280;55045;49.410;11.030;2023-04-01T02:35:59;96577.84;;;7.99;100.00
68226;BME280;55045;49.410;11.030;2023-04-01T02:39:05;96583.94;;;7.98;100.00
68226;BME280;55045;49.410;11.030;2023-04-01T02:42:09;96580.69;;;7.94;100.00
68226;BME280;55045;49.410;11.030;2023-04-01T02:45:13;96578.50;;;7.88;100.00
68226;BME280;55045;49.410;11.030;2023-04-01T02:48:17;96578.97;;;7.80;100.00
68226;BME280;55045;49.410;11.030;2023-04-01T02:51:20;96587.91;;;7.75;100.00
68226;BME280;55045;49.410;11.030;2023-04-01T02:54:24;96584.75;;;7.84;100.00
68226;BME280;55045;49.410;11.030;2023-04-01T02:57:28;96591.69;;;7.84;100.00
68226;BME280;55045;49.410;11.030;2023-04-01T03:00:32;96593.00;;;7.76;100.00
68226;BME280;55045;49.410;11.030;2023-04-01T03:03:35;96602.84;;;7.70;100.00
68226;BME280;55045;49.410;11.030;2023-04-01T03:06:38;96591.88;;;7.80;100.00
68226;BME280;55045;49.410;11.030;2023-04-01T03:09:43;96602.94;;;7.83;100.00
68226;BME280;55045;49.410;11.030;2023-04-01T03:12:46;96598.22;;;7.75;100.00
68226;BME280;55045;49.410;11.030;2023-04-01T03:15:49;96600.75;;;7.76;100.00
68226;BME280;55045;49.410;11.030;2023-04-01T03:18:53;96604.16;;;7.77;100.00
68226;BME280;55045;49.410;11.030;2023-04-01T03:22:00;96603.50;;;7.73;100.00
68226;BME280;55045;49.410;11.030;2023-04-01T03:25:06;96607.56;;;7.77;100.00
68226;BME280;55045;49.410;11.030;2023-04-01T03:28:10;96607.72;;;7.74;100.00
68226;BME280;55045;49.410;11.030;2023-04-01T03:35:05;96595.84;;;7.72;100.00
68226;BME280;55045;49.410;11.030;2023-04-01T03:38:09;96601.28;;;7.82;100.00
68226;BME280;55045;49.410;11.030;2023-04-01T03:41:14;96617.06;;;7.77;100.00
68226;BME280;55045;49.410;11.030;2023-04-01T03:44:18;96619.81;;;7.74;100.00
68226;BME280;55045;49.410;11.030;2023-04-01T03:47:24;96629.88;;;7.78;100.00
68226;BME280;55045;49.410;11.030;2023-04-01T03:50:29;96634.19;;;7.78;100.00
68226;BME280;55045;49.410;11.030;2023-04-01T03:53:33;96625.44;;;7.80;100.00
68226;BME280;55045;49.410;11.030;2023-04-01T03:56:39;96623.69;;;7.81;100.00
68226;BME280;55045;49.410;11.030;2023-04-01T03:59:42;96623.78;;;7.79;100.00
68226;BME280;55045;49.410;11.030;2023-04-01T04:02:45;96627.28;;;7.78;100.00
68226;BME280;55045;49.410;11.030;2023-04-01T04:05:56;96628.09;;;7.93;100.00
68226;BME280;55045;49.410;11.030;2023-04-01T04:09:00;96631.69;;;7.91;100.00
68226;BME280;55045;49.410;11.030;2023-04-01T04:12:05;96633.97;;;7.95;100.00
68226;BME280;55045;49.410;11.030;2023-04-01T04:15:10;96632.63;;;7.90;100.00
68226;BME280;55045;49.410;11.030;2023-04-01T04:18:13;96630.66;;;7.93;100.00
68226;BME280;55045;49.410;11.030;2023-04-01T04:21:18;96628.81;;;7.95;100.00
68226;BME280;55045;49.410;11.030;2023-04-01T04:24:21;96620.38;;;7.79;100.00
68226;BME280;55045;49.410;11.030;2023-04-01T04:27:40;96634.94;;;7.80;100.00
68226;BME280;55045;49.410;11.030;2023-04-01T04:30:46;96630.59;;;7.80;100.00
68226;BME280;55045;49.410;11.030;2023-04-01T04:33:50;96634.47;;;7.73;100.00
68226;BME280;55045;49.410;11.030;2023-04-01T04:36:55;96637.88;;;7.74;100.00
68226;BME280;55045;49.410;11.030;2023-04-01T04:40:03;96637.22;;;7.85;100.00
68226;BME280;55045;49.410;11.030;2023-04-01T04:43:07;96619.72;;;7.61;100.00
68226;BME280;55045;49.410;11.030;2023-04-01T04:46:13;96638.97;;;7.70;100.00
68226;BME280;55045;49.410;11.030;2023-04-01T04:49:16;96640.16;;;7.64;100.00
68226;BME280;55045;49.410;11.030;2023-04-01T04:52:21;96640.84;;;7.68;100.00
68226;BME280;55045;49.410;11.030;2023-04-01T04:55:24;96642.22;;;7.59;100.00
68226;BME280;55045;49.410;11.030;2023-04-01T04:58:48;96645.72;;;7.58;100.00
68226;BME280;55045;49.410;11.030;2023-04-01T05:01:56;96638.06;;;7.57;100.00
68226;BME280;55045;49.410;11.030;2023-04-01T05:05:00;96639.06;;;7.54;100.00
68226;BME280;55045;49.410;11.030;2023-04-01T05:08:05;96642.03;;;7.62;100.00
68226;BME280;55045;49.410;11.030;2023-04-01T05:11:12;96643.13;;;7.58;100.00
68226;BME280;55045;49.410;11.030;2023-04-01T05:14:17;96640.47;;;7.60;100.00
68226;BME280;55045;49.410;11.030;2023-04-01T05:17:29;96647.19;;;7.62;100.00
68226;BME280;55045;49.410;11.030;2023-04-01T05:20:32;96650.50;;;7.64;100.00
68226;BME280;55045;49.410;11.030;2023-04-01T05:23:38;96646.09;;;7.66;100.00
68226;BME280;55045;49.410;11.030;2023-04-01T05:26:41;96647.56;;;7.70;100.00
68226;BME280;55045;49.410;11.030;2023-04-01T05:29:44;96644.34;;;7.67;100.00
68226;BME280;55045;49.410;11.030;2023-04-01T05:33:08;96643.31;;;7.69;100.00
68226;BME280;55045;49.410;11.030;2023-04-01T05:36:13;96645.59;;;7.74;100.00
68226;BME280;55045;49.410;11.030;2023-04-01T05:39:18;96640.53;;;7.72;100.00
68226;BME280;55045;49.410;11.030;2023-04-01T05:42:21;96634.66;;;7.70;100.00
68226;BME280;55045;49.410;11.030;2023-04-01T05:45:25;96638.88;;;7.71;100.00
68226;BME280;55045;49.410;11.030;2023-04-01T05:48:46;96638.69;;;7.74;100.00
68226;BME280;55045;49.410;11.030;2023-04-01T05:51:50;96643.84;;;7.74;100.00
68226;BME280;55045;49.410;11.030;2023-04-01T05:54:55;96635.03;;;7.78;100.00
68226;BME280;55045;49.410;11.030;2023-04-01T05:57:58;96630.41;;;7.84;100.00
68226;BME280;55045;49.410;11.030;2023-04-01T06:01:04;96638.44;;;7.79;100.00
68226;BME280;55045;49.410;11.030;2023-04-01T06:04:17;96632.44;;;7.78;100.00
68226;BME280;55045;49.410;11.030;2023-04-01T06:07:20;96645.06;;;7.83;100.00
68226;BME280;55045;49.410;11.030;2023-04-01T06:10:35;96634.94;;;7.80;100.00
68226;BME280;55045;49.410;11.030;2023-04-01T06:13:54;96644.69;;;7.89;100.00
68226;BME280;55045;49.410;11.030;2023-04-01T06:17:15;96638.03;;;7.85;100.00
68226;BME280;55045;49.410;11.030;2023-04-01T06:20:26;96638.72;;;7.89;100.00
68226;BME280;55045;49.410;11.030;2023-04-01T06:23:41;96642.22;;;7.88;100.00
68226;BME280;55045;49.410;11.030;2023-04-01T06:27:01;96635.56;;;7.84;100.00
68226;BME280;55045;49.410;11.030;2023-04-01T06:30:24;96629.56;;;7.83;100.00
68226;BME280;55045;49.410;11.030;2023-04-01T06:33:47;96636.72;;;8.06;100.00
68226;BME280;55045;49.410;11.030;2023-04-01T06:37:05;96632.22;;;8.10;100.00
68226;BME280;55045;49.410;11.030;2023-04-01T06:40:27;96637.91;;;8.15;100.00
68226;BME280;55045;49.410;11.030;2023-04-01T06:43:48;96635.16;;;8.18;100.00
68226;BME280;55045;49.410;11.030;2023-04-01T06:47:43;96631.97;;;8.27;100.00
68226;BME280;55045;49.410;11.030;2023-04-01T06:51:15;96637.44;;;8.37;100.00
68226;BME280;55045;49.410;11.030;2023-04-01T06:54:48;96636.44;;;8.40;100.00
68226;BME280;55045;49.410;11.030;2023-04-01T06:58:19;96627.34;;;8.47;100.00
68226;BME280;55045;49.410;11.030;2023-04-01T07:01:28;96618.19;;;8.55;100.00
68226;BME280;55045;49.410;11.030;2023-04-01T07:04:35;96627.59;;;8.83;100.00
68226;BME280;55045;49.410;11.030;2023-04-01T07:07:43;96595.16;;;8.65;100.00
68226;BME280;55045;49.410;11.030;2023-04-01T07:10:51;96620.81;;;9.08;100.00
68226;BME280;55045;49.410;11.030;2023-04-01T07:14:33;96624.00;;;8.99;100.00
68226;BME280;55045;49.410;11.030;2023-04-01T07:17:41;96619.03;;;8.95;100.00
68226;BME280;55045;49.410;11.030;2023-04-01T07:20:46;96604.88;;;9.01;100.00
68226;BME280;55045;49.410;11.030;2023-04-01T07:23:50;96609.63;;;8.94;100.00
68226;BME280;55045;49.410;11.030;2023-04-01T07:27:15;96616.28;;;9.11;100.00
68226;BME280;55045;49.410;11.030;2023-04-01T07:30:22;96615.13;;;9.28;100.00
68226;BME280;55045;49.410;11.030;2023-04-01T07:33:35;96617.31;;;9.34;100.00
68226;BME280;55045;49.410;11.030;2023-04-01T07:36:43;96617.09;;;9.37;100.00
68226;BME280;55045;49.410;11.030;2023-04-01T07:39:54;96608.03;;;9.32;100.00
68226;BME280;55045;49.410;11.030;2023-04-01T07:43:22;96618.47;;;9.30;100.00
68226;BME280;55045;49.410;11.030;2023-04-01T07:46:53;96629.31;;;9.22;100.00
68226;BME280;55045;49.410;11.030;2023-04-01T07:50:10;96618.75;;;9.26;100.00
68226;BME280;55045;49.410;11.030;2023-04-01T07:53:20;96632.13;;;9.32;100.00
68226;BME280;55045;49.410;11.030;2023-04-01T07:56:37;96628.72;;;9.44;100.00
68226;BME280;55045;49.410;11.030;2023-04-01T07:59:57;96633.16;;;9.55;100.00
68226;BME280;55045;49.410;11.030;2023-04-01T08:03:25;96626.13;;;9.44;100.00
68226;BME280;55045;49.410;11.030;2023-04-01T08:06:38;96634.31;;;9.64;100.00
68226;BME280;55045;49.410;11.030;2023-04-01T08:09:52;96632.66;;;9.63;100.00
68226;BME280;55045;49.410;11.030;2023-04-01T08:13:23;96633.25;;;9.66;100.00
68226;BME280;55045;49.410;11.030;2023-04-01T08:16:55;96639.34;;;9.78;100.00
68226;BME280;55045;49.410;11.030;2023-04-01T08:20:17;96641.84;;;9.79;100.00
68226;BME280;55045;49.410;11.030;2023-04-01T08:23:28;96632.22;;;9.81;100.00
68226;BME280;55045;49.410;11.030;2023-04-01T08:26:37;96627.75;;;9.84;100.00
68226;BME280;55045;49.410;11.030;2023-04-01T08:29:47;96627.03;;;9.94;100.00
68226;BME280;55045;49.410;11.030;2023-04-01T08:32:55;96631.97;;;9.97;100.00
68226;BME280;55045;49.410;11.030;2023-04-01T08:36:03;96639.91;;;10.20;100.00
68226;BME280;55045;49.410;11.030;2023-04-01T08:39:32;96636.13;;;10.13;100.00
68226;BME280;55045;49.410;11.030;2023-04-01T08:42:53;96625.16;;;9.96;100.00
68226;BME280;55045;49.410;11.030;2023-04-01T08:46:13;96621.41;;;10.00;100.00
68226;BME280;55045;49.410;11.030;2023-04-01T08:49:36;96624.59;;;10.17;100.00
68226;BME280;55045;49.410;11.030;2023-04-01T08:53:00;96623.47;;;10.08;100.00
68226;BME280;55045;49.410;11.030;2023-04-01T08:56:15;96628.53;;;10.09;100.00
68226;BME280;55045;49.410;11.030;2023-04-01T08:59:52;96634.06;;;9.92;100.00
68226;BME280;55045;49.410;11.030;2023-04-01T09:03:37;96625.88;;;9.98;100.00
68226;BME280;55045;49.410;11.030;2023-04-01T09:06:55;96625.75;;;10.00;100.00
68226;BME280;55045;49.410;11.030;2023-04-01T09:10:24;96631.28;;;9.95;100.00
68226;BME280;55045;49.410;11.030;2023-04-01T09:13:59;96634.47;;;10.12;100.00
68226;BME280;55045;49.410;11.030;2023-04-01T09:17:25;96638.31;;;9.93;100.00
68226;BME280;55045;49.410;11.030;2023-04-01T09:20:42;96635.50;;;9.96;100.00
68226;BME280;55045;49.410;11.030;2023-04-01T09:24:14;96628.03;;;10.04;100.00
68226;BME280;55045;49.410;11.030;2023-04-01T09:27:27;96629.09;;;9.89;100.00
68226;BME280;55045;49.410;11.030;2023-04-01T09:35:20;96627.03;;;9.94;100.00
68226;BME280;55045;49.410;11.030;2023-04-01T09:38:29;96604.13;;;9.88;100.00
68226;BME280;55045;49.410;11.030;2023-04-01T09:41:39;96640.50;;;9.87;100.00
68226;BME280;55045;49.410;11.030;2023-04-01T09:44:57;96632.59;;;10.01;100.00
68226;BME280;55045;49.410;11.030;2023-04-01T09:48:09;96631.97;;;9.97;100.00
68226;BME280;55045;49.410;11.030;2023-04-01T09:51:24;96633.56;;;9.87;100.00
68226;BME280;55045;49.410;11.030;2023-04-01T09:54:47;96640.09;;;9.93;100.00
68226;BME280;55045;49.410;11.030;2023-04-01T09:58:07;96646.72;;;9.84;100.00
68226;BME280;55045;49.410;11.030;2023-04-01T10:02:13;96645.91;;;9.71;100.00
68226;BME280;55045;49.410;11.030;2023-04-01T10:05:45;96656.13;;;9.47;100.00
68226;BME280;55045;49.410;11.030;2023-04-01T10:09:17;96661.63;;;9.42;100.00
68226;BME280;55045;49.410;11.030;2023-04-01T10:13:11;96663.66;;;9.24;100.00
68226;BME280;55045;49.410;11.030;2023-04-01T10:16:28;96664.69;;;9.09;100.00
68226;BME280;55045;49.410;11.030;2023-04-01T10:23:44;96675.72;;;8.99;100.00
68226;BME280;55045;49.410;11.030;2023-04-01T10:27:22;96681.81;;;8.98;100.00
68226;BME280;55045;49.410;11.030;2023-04-01T10:38:12;96680.59;;;9.03;100.00
68226;BME280;55045;49.410;11.030;2023-04-01T10:41:38;96680.72;;;8.75;100.00
68226;BME280;55045;49.410;11.030;2023-04-01T10:45:38;96671.28;;;8.74;100.00
68226;BME280;55045;49.410;11.030;2023-04-01T10:49:24;96678.22;;;8.73;100.00
68226;BME280;55045;49.410;11.030;2023-04-01T10:56:43;96666.81;;;8.63;100.00
68226;BME280;55045;49.410;11.030;2023-04-01T11:00:30;96687.69;;;8.60;100.00
68226;BME280;55045;49.410;11.030;2023-04-01T11:04:23;96690.06;;;8.63;100.00
68226;BME280;55045;49.410;11.030;2023-04-01T11:08:17;96687.13;;;8.69;100.00
68226;BME280;55045;49.410;11.030;2023-04-01T11:15:39;96684.84;;;8.77;100.00
68226;BME280;55045;49.410;11.030;2023-04-01T11:19:07;96698.13;;;8.85;100.00
68226;BME280;55045;49.410;11.030;2023-04-01T11:22:33;96695.00;;;8.80;100.00
68226;BME280;55045;49.410;11.030;2023-04-01T11:26:02;96683.97;;;8.64;100.00
68226;BME280;55045;49.410;11.030;2023-04-01T11:29:46;96686.66;;;8.62;100.00
68226;BME280;55045;49.410;11.030;2023-04-01T11:33:14;96688.19;;;8.79;100.00
68226;BME280;55045;49.410;11.030;2023-04-01T11:36:33;96695.03;;;8.66;100.00
68226;BME280;55045;49.410;11.030;2023-04-01T11:39:58;96696.34;;;8.86;100.00
68226;BME280;55045;49.410;11.030;2023-04-01T11:43:37;96673.56;;;8.78;100.00
68226;BME280;55045;49.410;11.030;2023-04-01T11:50:20;96695.19;;;8.77;100.00
68226;BME280;55045;49.410;11.030;2023-04-01T11:53:35;96679.09;;;8.86;100.00
68226;BME280;55045;49.410;11.030;2023-04-01T11:56:50;96687.41;;;8.91;100.00
68226;BME280;55045;49.410;11.030;2023-04-01T12:00:03;96690.84;;;8.78;100.00
68226;BME280;55045;49.410;11.030;2023-04-01T12:03:32;96690.22;;;8.74;100.00
68226;BME280;55045;49.410;11.030;2023-04-01T12:06:44;96691.81;;;8.62;100.00
68226;BME280;55045;49.410;11.030;2023-04-01T12:09:59;96698.69;;;8.76;100.00
68226;BME280;55045;49.410;11.030;2023-04-01T12:13:14;96701.03;;;8.93;100.00
68226;BME280;55045;49.410;11.030;2023-04-01T12:16:26;96703.56;;;9.08;100.00
68226;BME280;55045;49.410;11.030;2023-04-01T12:19:40;96697.41;;;9.23;100.00
68226;BME280;55045;49.410;11.030;2023-04-01T12:22:55;96704.63;;;9.18;100.00
68226;BME280;55045;49.410;11.030;2023-04-01T12:26:27;96700.97;;;9.08;100.00
68226;BME280;55045;49.410;11.030;2023-04-01T12:29:47;96705.63;;;9.03;100.00
68226;BME280;55045;49.410;11.030;2023-04-01T12:33:04;96700.16;;;9.07;100.00
68226;BME280;55045;49.410;11.030;2023-04-01T12:36:18;96706.53;;;8.89;100.00
68226;BME280;55045;49.410;11.030;2023-04-01T12:39:43;96710.53;;;8.80;100.00
68226;BME280;55045;49.410;11.030;2023-04-01T12:43:05;96705.34;;;8.80;100.00
68226;BME280;55045;49.410;11.030;2023-04-01T12:46:23;96689.94;;;8.79;100.00
68226;BME280;55045;49.410;11.030;2023-04-01T12:49:39;96702.69;;;8.94;100.00
68226;BME280;55045;49.410;11.030;2023-04-01T12:52:51;96697.44;;;8.96;100.00
68226;BME280;55045;49.410;11.030;2023-04-01T12:56:09;96707.81;;;9.09;100.00
68226;BME280;55045;49.410;11.030;2023-04-01T12:59:37;96701.91;;;9.07;100.00
68226;BME280;55045;49.410;11.030;2023-04-01T13:02:53;96696.94;;;9.04;100.00
68226;BME280;55045;49.410;11.030;2023-04-01T13:06:29;96699.28;;;9.21;100.00
68226;BME280;55045;49.410;11.030;2023-04-01T13:09:38;96700.56;;;9.01;100.00
68226;BME280;55045;49.410;11.030;2023-04-01T13:13:09;96700.72;;;9.25;100.00
68226;BME280;55045;49.410;11.030;2023-04-01T13:16:21;96710.97;;;9.27;100.00
68226;BME280;55045;49.410;11.030;2023-04-01T13:19:31;96700.22;;;9.33;100.00
68226;BME280;55045;49.410;11.030;2023-04-01T13:22:50;96707.34;;;9.29;100.00
68226;BME280;55045;49.410;11.030;2023-04-01T13:26:05;96698.34;;;9.22;100.00
68226;BME280;55045;49.410;11.030;2023-04-01T13:29:20;96710.56;;;9.33;100.00
68226;BME280;55045;49.410;11.030;2023-04-01T13:32:30;96703.50;;;9.22;100.00
68226;BME280;55045;49.410;11.030;2023-04-01T13:35:52;96706.56;;;9.54;100.00
68226;BME280;55045;49.410;11.030;2023-04-01T13:39:23;96701.28;;;9.56;100.00
68226;BME280;55045;49.410;11.030;2023-04-01T13:42:35;96702.44;;;9.64;100.00
68226;BME280;55045;49.410;11.030;2023-04-01T13:45:57;96669.06;;;9.60;100.00
68226;BME280;55045;49.410;11.030;2023-04-01T13:49:35;96695.91;;;9.59;100.00
68226;BME280;55045;49.410;11.030;2023-04-01T13:53:04;96693.13;;;9.74;100.00
68226;BME280;55045;49.410;11.030;2023-04-01T13:56:24;96703.06;;;9.68;100.00
68226;BME280;55045;49.410;11.030;2023-04-01T13:59:50;96690.41;;;9.76;100.00
68226;BME280;55045;49.410;11.030;2023-04-01T14:07:07;96703.88;;;9.94;100.00
68226;BME280;55045;49.410;11.030;2023-04-01T14:10:19;96702.53;;;10.01;100.00
68226;BME280;55045;49.410;11.030;2023-04-01T14:13:34;96699.84;;;9.77;100.00
68226;BME280;55045;49.410;11.030;2023-04-01T14:17:20;96696.81;;;9.70;100.00
68226;BME280;55045;49.410;11.030;2023-04-01T14:20:36;96703.38;;;9.63;100.00
68226;BME280;55045;49.410;11.030;2023-04-01T14:27:41;96711.09;;;9.38;100.00
68226;BME280;55045;49.410;11.030;2023-04-01T14:30:59;96711.28;;;9.35;100.00
68226;BME280;55045;49.410;11.030;2023-04-01T14:34:19;96714.81;;;9.34;100.00
68226;BME280;55045;49.410;11.030;2023-04-01T14:37:31;96716.13;;;9.27;100.00
68226;BME280;55045;49.410;11.030;2023-04-01T14:41:02;96721.53;;;9.36;100.00
68226;BME280;55045;49.410;11.030;2023-04-01T14:44:24;96726.38;;;9.28;100.00
68226;BME280;55045;49.410;11.030;2023-04-01T14:47:43;96717.91;;;9.26;100.00
68226;BME280;55045;49.410;11.030;2023-04-01T14:50:51;96722.13;;;9.27;100.00
68226;BME280;55045;49.410;11.030;2023-04-01T14:54:00;96726.38;;;9.28;100.00
68226;BME280;55045;49.410;11.030;2023-04-01T14:57:11;96731.66;;;9.27;100.00
68226;BME280;55045;49.410;11.030;2023-04-01T15:00:17;96720.34;;;9.15;100.00
68226;BME280;55045;49.410;11.030;2023-04-01T15:03:26;96729.75;;;9.16;100.00
68226;BME280;55045;49.410;11.030;2023-04-01T15:06:55;96735.06;;;9.27;100.00
68226;BME280;55045;49.410;11.030;2023-04-01T15:10:10;96727.03;;;9.32;100.00
68226;BME280;55045;49.410;11.030;2023-04-01T15:13:36;96724.13;;;9.36;100.00
68226;BME280;55045;49.410;11.030;2023-04-01T15:16:51;96728.50;;;9.48;100.00
68226;BME280;55045;49.410;11.030;2023-04-01T15:20:10;96731.91;;;9.49;100.00
68226;BME280;55045;49.410;11.030;2023-04-01T15:23:27;96724.47;;;9.44;100.00
68226;BME280;55045;49.410;11.030;2023-04-01T15:27:11;96731.84;;;9.50;100.00
68226;BME280;55045;49.410;11.030;2023-04-01T15:30:30;96729.53;;;9.46;100.00
68226;BME280;55045;49.410;11.030;2023-04-01T15:35:18;96750.00;;;9.36;100.00
68226;BME280;55045;49.410;11.030;2023-04-01T15:38:32;96748.56;;;9.32;100.00
68226;BME280;55045;49.410;11.030;2023-04-01T15:41:45;96739.31;;;9.28;100.00
68226;BME280;55045;49.410;11.030;2023-04-01T15:45:01;96755.38;;;9.33;100.00
68226;BME280;55045;49.410;11.030;2023-04-01T15:48:27;96746.59;;;9.36;100.00
68226;BME280;55045;49.410;11.030;2023-04-01T15:51:48;96752.94;;;9.44;100.00
68226;BME280;55045;49.410;11.030;2023-04-01T15:55:18;96760.16;;;9.39;100.00
68226;BME280;55045;49.410;11.030;2023-04-01T15:58:41;96755.19;;;9.36;100.00
68226;BME280;55045;49.410;11.030;2023-04-01T16:01:56;96761.38;;;9.34;100.00
68226;BME280;55045;49.410;11.030;2023-04-01T16:05:05;96763.16;;;9.33;100.00
68226;BME280;55045;49.410;11.030;2023-04-01T16:08:40;96766.34;;;9.37;100.00
68226;BME280;55045;49.410;11.030;2023-04-01T16:11:53;96764.19;;;9.31;100.00
68226;BME280;55045;49.410;11.030;2023-04-01T16:15:09;96768.19;;;9.22;100.00
68226;BME280;55045;49.410;11.030;2023-04-01T16:18:32;96772.09;;;9.15;100.00
68226;BME280;55045;49.410;11.030;2023-04-01T16:21:44;96775.81;;;9.11;100.00
68226;BME280;55045;49.410;11.030;2023-04-01T16:24:53;96779.13;;;9.13;100.00
68226;BME280;55045;49.410;11.030;2023-04-01T16:28:15;96790.25;;;9.01;100.00
68226;BME280;55045;49.410;11.030;2023-04-01T16:31:31;96783.41;;;9.00;100.00
68226;BME280;55045;49.410;11.030;2023-04-01T16:34:38;96785.34;;;8.96;100.00
68226;BME280;55045;49.410;11.030;2023-04-01T16:37:47;96791.84;;;8.89;100.00
68226;BME280;55045;49.410;11.030;2023-04-01T16:41:07;96793.50;;;8.90;100.00
68226;BME280;55045;49.410;11.030;2023-04-01T16:44:18;96791.28;;;8.84;100.00
68226;BME280;55045;49.410;11.030;2023-04-01T16:47:27;96789.63;;;8.83;100.00
68226;BME280;55045;49.410;11.030;2023-04-01T16:50:44;96811.66;;;8.88;100.00
68226;BME280;55045;49.410;11.030;2023-04-01T16:54:02;96811.50;;;8.91;100.00
68226;BME280;55045;49.410;11.030;2023-04-01T16:57:19;96820.84;;;8.80;100.00
68226;BME280;55045;49.410;11.030;2023-04-01T17:00:26;96812.53;;;8.75;100.00
68226;BME280;55045;49.410;11.030;2023-04-01T17:03:32;96826.94;;;8.79;100.00
68226;BME280;55045;49.410;11.030;2023-04-01T17:06:40;96811.72;;;8.74;100.00
68226;BME280;55045;49.410;11.030;2023-04-01T17:10:00;96810.06;;;8.73;100.00
68226;BME280;55045;49.410;11.030;2023-04-01T17:13:35;96823.59;;;8.77;100.00
68226;BME280;55045;49.410;11.030;2023-04-01T17:20:38;96827.78;;;8.79;100.00
68226;BME280;55045;49.410;11.030;2023-04-01T17:23:46;96823.69;;;8.75;100.00
68226;BME280;55045;49.410;11.030;2023-04-01T17:26:58;96835.59;;;8.78;100.00
68226;BME280;55045;49.410;11.030;2023-04-01T17:30:16;96818.38;;;8.64;100.00
68226;BME280;55045;49.410;11.030;2023-04-01T17:33:44;96839.94;;;8.77;100.00
68226;BME280;55045;49.410;11.030;2023-04-01T17:37:02;96841.44;;;8.81;100.00
68226;BME280;55045;49.410;11.030;2023-04-01T17:40:20;96850.03;;;8.82;100.00
68226;BME280;55045;49.410;11.030;2023-04-01T17:43:32;96855.47;;;8.77;100.00
68226;BME280;55045;49.410;11.030;2023-04-01T17:46:55;96834.50;;;8.68;100.00
68226;BME280;55045;49.410;11.030;2023-04-01T17:50:09;96866.56;;;8.79;100.00
68226;BME280;55045;49.410;11.030;2023-04-01T17:53:26;96875.22;;;8.78;100.00